sensor_id;sensor_type;location;lat;lon;timestamp;P1;durP1;ratioP1;P2;durP2;ratioP2
69321;SDS011;67799;51.974;4.612;2023-02-18T00:00:19;19.00;;;6.77;;
69321;SDS011;67799;51.974;4.612;2023-02-18T00:02:47;15.93;;;5.72;;
69321;SDS011;67799;51.974;4.612;2023-02-18T00:05:14;14.60;;;5.47;;
69321;SDS011;67799;51.974;4.612;2023-02-18T00:07:40;13.73;;;5.80;;
69321;SDS011;67799;51.974;4.612;2023-02-18T00:10:08;8.40;;;4.93;;
69321;SDS011;67799;51.974;4.612;2023-02-18T00:12:36;16.60;;;6.10;;
69321;SDS011;67799;51.974;4.612;2023-02-18T00:15:02;15.73;;;6.30;;
69321;SDS011;67799;51.974;4.612;2023-02-18T00:17:28;10.70;;;4.82;;
69321;SDS011;67799;51.974;4.612;2023-02-18T00:19:55;8.63;;;4.07;;
69321;SDS011;67799;51.974;4.612;2023-02-18T00:22:21;7.65;;;5.10;;
69321;SDS011;67799;51.974;4.612;2023-02-18T00:24:48;9.80;;;4.63;;
69321;SDS011;67799;51.974;4.612;2023-02-18T00:27:14;9.75;;;4.55;;
69321;SDS011;67799;51.974;4.612;2023-02-18T00:29:40;11.07;;;4.68;;
69321;SDS011;67799;51.974;4.612;2023-02-18T00:32:05;6.43;;;3.93;;
69321;SDS011;67799;51.974;4.612;2023-02-18T00:34:31;8.18;;;4.80;;
69321;SDS011;67799;51.974;4.612;2023-02-18T00:37:01;8.77;;;4.43;;
69321;SDS011;67799;51.974;4.612;2023-02-18T00:39:27;10.80;;;5.53;;
69321;SDS011;67799;51.974;4.612;2023-02-18T00:41:53;12.68;;;6.35;;
69321;SDS011;67799;51.974;4.612;2023-02-18T00:44:19;11.97;;;5.80;;
69321;SDS011;67799;51.974;4.612;2023-02-18T00:46:45;9.68;;;5.18;;
69321;SDS011;67799;51.974;4.612;2023-02-18T00:49:12;13.38;;;5.72;;
69321;SDS011;67799;51.974;4.612;2023-02-18T00:51:40;7.87;;;4.60;;
69321;SDS011;67799;51.974;4.612;2023-02-18T00:54:06;8.02;;;4.80;;
69321;SDS011;67799;51.974;4.612;2023-02-18T00:56:32;7.30;;;4.40;;
69321;SDS011;67799;51.974;4.612;2023-02-18T00:58:57;8.83;;;4.60;;
69321;SDS011;67799;51.974;4.612;2023-02-18T01:01:23;10.13;;;5.07;;
69321;SDS011;67799;51.974;4.612;2023-02-18T01:03:49;10.30;;;4.90;;
69321;SDS011;67799;51.974;4.612;2023-02-18T01:06:15;13.70;;;6.63;;
69321;SDS011;67799;51.974;4.612;2023-02-18T01:08:41;14.30;;;5.45;;
69321;SDS011;67799;51.974;4.612;2023-02-18T01:11:08;10.18;;;5.35;;
69321;SDS011;67799;51.974;4.612;2023-02-18T01:13:36;11.63;;;5.43;;
69321;SDS011;67799;51.974;4.612;2023-02-18T01:16:05;14.48;;;5.80;;
69321;SDS011;67799;51.974;4.612;2023-02-18T01:18:31;11.68;;;4.40;;
69321;SDS011;67799;51.974;4.612;2023-02-18T01:20:58;14.60;;;6.67;;
69321;SDS011;67799;51.974;4.612;2023-02-18T01:23:24;10.57;;;4.82;;
69321;SDS011;67799;51.974;4.612;2023-02-18T01:25:50;9.68;;;5.07;;
69321;SDS011;67799;51.974;4.612;2023-02-18T01:28:16;16.25;;;6.47;;
69321;SDS011;67799;51.974;4.612;2023-02-18T01:30:43;14.70;;;6.60;;
69321;SDS011;67799;51.974;4.612;2023-02-18T01:33:09;10.68;;;5.28;;
69321;SDS011;67799;51.974;4.612;2023-02-18T01:35:40;13.13;;;5.53;;
69321;SDS011;67799;51.974;4.612;2023-02-18T01:38:06;9.53;;;5.20;;
69321;SDS011;67799;51.974;4.612;2023-02-18T01:40:32;11.35;;;5.97;;
69321;SDS011;67799;51.974;4.612;2023-02-18T01:43:00;12.52;;;5.57;;
69321;SDS011;67799;51.974;4.612;2023-02-18T01:50:39;13.52;;;6.60;;
69321;SDS011;67799;51.974;4.612;2023-02-18T01:53:09;10.82;;;5.35;;
69321;SDS011;67799;51.974;4.612;2023-02-18T01:55:39;10.30;;;5.53;;
69321;SDS011;67799;51.974;4.612;2023-02-18T01:58:05;13.35;;;5.32;;
69321;SDS011;67799;51.974;4.612;2023-02-18T02:00:31;13.55;;;5.70;;
69321;SDS011;67799;51.974;4.612;2023-02-18T02:02:57;10.90;;;5.47;;
69321;SDS011;67799;51.974;4.612;2023-02-18T02:05:23;9.63;;;5.13;;
69321;SDS011;67799;51.974;4.612;2023-02-18T02:07:50;12.70;;;5.88;;
69321;SDS011;67799;51.974;4.612;2023-02-18T02:10:18;12.00;;;5.20;;
69321;SDS011;67799;51.974;4.612;2023-02-18T02:12:55;10.27;;;5.50;;
69321;SDS011;67799;51.974;4.612;2023-02-18T02:15:48;12.65;;;5.38;;
69321;SDS011;67799;51.974;4.612;2023-02-18T02:27:33;10.13;;;4.77;;
69321;SDS011;67799;51.974;4.612;2023-02-18T02:30:22;10.82;;;5.65;;
69321;SDS011;67799;51.974;4.612;2023-02-18T02:38:50;17.00;;;6.80;;
69321;SDS011;67799;51.974;4.612;2023-02-18T02:46:40;11.20;;;5.13;;
69321;SDS011;67799;51.974;4.612;2023-02-18T02:52:02;5.93;;;3.55;;
69321;SDS011;67799;51.974;4.612;2023-02-18T02:54:29;11.43;;;4.00;;
69321;SDS011;67799;51.974;4.612;2023-02-18T02:57:06;5.88;;;3.35;;
69321;SDS011;67799;51.974;4.612;2023-02-18T03:00:00;4.50;;;3.20;;
69321;SDS011;67799;51.974;4.612;2023-02-18T03:13:03;3.57;;;2.40;;
69321;SDS011;67799;51.974;4.612;2023-02-18T03:15:55;3.60;;;2.60;;
69321;SDS011;67799;51.974;4.612;2023-02-18T03:22:05;3.13;;;2.37;;
69321;SDS011;67799;51.974;4.612;2023-02-18T03:24:44;3.65;;;2.97;;
69321;SDS011;67799;51.974;4.612;2023-02-18T03:27:15;3.35;;;2.40;;
69321;SDS011;67799;51.974;4.612;2023-02-18T03:29:47;4.43;;;2.80;;
69321;SDS011;67799;51.974;4.612;2023-02-18T03:32:21;3.37;;;2.70;;
69321;SDS011;67799;51.974;4.612;2023-02-18T03:34:54;3.35;;;2.60;;
69321;SDS011;67799;51.974;4.612;2023-02-18T03:37:26;4.38;;;2.70;;
69321;SDS011;67799;51.974;4.612;2023-02-18T03:39:54;4.23;;;2.90;;
69321;SDS011;67799;51.974;4.612;2023-02-18T03:42:27;3.83;;;2.90;;
69321;SDS011;67799;51.974;4.612;2023-02-18T03:44:53;5.72;;;3.13;;
69321;SDS011;67799;51.974;4.612;2023-02-18T03:47:21;3.10;;;2.57;;
69321;SDS011;67799;51.974;4.612;2023-02-18T03:49:48;4.03;;;2.83;;
69321;SDS011;67799;51.974;4.612;2023-02-18T03:52:14;8.55;;;3.75;;
69321;SDS011;67799;51.974;4.612;2023-02-18T03:54:40;7.03;;;2.67;;
69321;SDS011;67799;51.974;4.612;2023-02-18T03:57:07;3.93;;;2.57;;
69321;SDS011;67799;51.974;4.612;2023-02-18T03:59:33;8.43;;;3.03;;
69321;SDS011;67799;51.974;4.612;2023-02-18T04:01:59;2.63;;;2.22;;
69321;SDS011;67799;51.974;4.612;2023-02-18T04:04:25;3.37;;;2.70;;
69321;SDS011;67799;51.974;4.612;2023-02-18T04:06:51;4.40;;;2.20;;
69321;SDS011;67799;51.974;4.612;2023-02-18T04:09:17;2.80;;;2.35;;
69321;SDS011;67799;51.974;4.612;2023-02-18T04:11:43;3.80;;;2.40;;
69321;SDS011;67799;51.974;4.612;2023-02-18T04:14:08;5.72;;;2.85;;
69321;SDS011;67799;51.974;4.612;2023-02-18T04:16:38;3.65;;;2.63;;
69321;SDS011;67799;51.974;4.612;2023-02-18T04:19:04;3.10;;;2.40;;
69321;SDS011;67799;51.974;4.612;2023-02-18T04:21:30;3.92;;;2.65;;
69321;SDS011;67799;51.974;4.612;2023-02-18T04:23:56;5.50;;;3.20;;
69321;SDS011;67799;51.974;4.612;2023-02-18T04:26:22;5.10;;;3.63;;
69321;SDS011;67799;51.974;4.612;2023-02-18T04:28:48;6.63;;;3.90;;
69321;SDS011;67799;51.974;4.612;2023-02-18T04:31:14;3.88;;;2.72;;
69321;SDS011;67799;51.974;4.612;2023-02-18T04:33:40;3.77;;;2.70;;
69321;SDS011;67799;51.974;4.612;2023-02-18T04:36:06;6.25;;;3.42;;
69321;SDS011;67799;51.974;4.612;2023-02-18T04:38:32;6.28;;;4.63;;
69321;SDS011;67799;51.974;4.612;2023-02-18T04:40:58;3.90;;;2.83;;
69321;SDS011;67799;51.974;4.612;2023-02-18T04:43:24;3.80;;;3.03;;
69321;SDS011;67799;51.974;4.612;2023-02-18T04:45:49;4.35;;;3.35;;
69321;SDS011;67799;51.974;4.612;2023-02-18T04:48:15;6.53;;;3.30;;
69321;SDS011;67799;51.974;4.612;2023-02-18T04:50:42;5.90;;;3.90;;
69321;SDS011;67799;51.974;4.612;2023-02-18T04:53:08;7.28;;;3.65;;
69321;SDS011;67799;51.974;4.612;2023-02-18T04:55:34;5.90;;;3.70;;
69321;SDS011;67799;51.974;4.612;2023-02-18T04:58:00;5.43;;;3.75;;
69321;SDS011;67799;51.974;4.612;2023-02-18T05:00:26;7.20;;;4.03;;
69321;SDS011;67799;51.974;4.612;2023-02-18T05:02:53;7.10;;;3.80;;
69321;SDS011;67799;51.974;4.612;2023-02-18T05:05:19;4.05;;;3.35;;
69321;SDS011;67799;51.974;4.612;2023-02-18T05:07:45;5.88;;;3.65;;
69321;SDS011;67799;51.974;4.612;2023-02-18T05:10:14;3.43;;;2.93;;
69321;SDS011;67799;51.974;4.612;2023-02-18T05:12:42;4.35;;;2.83;;
69321;SDS011;67799;51.974;4.612;2023-02-18T05:15:08;3.92;;;2.72;;
69321;SDS011;67799;51.974;4.612;2023-02-18T05:17:34;5.95;;;3.17;;
69321;SDS011;67799;51.974;4.612;2023-02-18T05:20:00;5.43;;;3.60;;
69321;SDS011;67799;51.974;4.612;2023-02-18T05:22:26;4.72;;;3.30;;
69321;SDS011;67799;51.974;4.612;2023-02-18T05:24:52;5.57;;;3.30;;
69321;SDS011;67799;51.974;4.612;2023-02-18T05:27:18;5.63;;;3.80;;
69321;SDS011;67799;51.974;4.612;2023-02-18T05:29:43;4.38;;;3.05;;
69321;SDS011;67799;51.974;4.612;2023-02-18T05:32:09;6.32;;;4.00;;
69321;SDS011;67799;51.974;4.612;2023-02-18T05:34:35;7.10;;;4.07;;
69321;SDS011;67799;51.974;4.612;2023-02-18T05:37:01;6.95;;;3.80;;
69321;SDS011;67799;51.974;4.612;2023-02-18T05:39:27;7.13;;;3.63;;
69321;SDS011;67799;51.974;4.612;2023-02-18T05:41:53;6.25;;;4.28;;
69321;SDS011;67799;51.974;4.612;2023-02-18T05:44:18;8.57;;;4.88;;
69321;SDS011;67799;51.974;4.612;2023-02-18T05:46:58;7.63;;;3.20;;
69321;SDS011;67799;51.974;4.612;2023-02-18T05:49:25;5.18;;;3.15;;
69321;SDS011;67799;51.974;4.612;2023-02-18T05:51:52;8.25;;;3.55;;
69321;SDS011;67799;51.974;4.612;2023-02-18T05:54:17;8.57;;;4.47;;
69321;SDS011;67799;51.974;4.612;2023-02-18T05:56:43;11.93;;;3.83;;
69321;SDS011;67799;51.974;4.612;2023-02-18T05:59:09;3.50;;;2.72;;
69321;SDS011;67799;51.974;4.612;2023-02-18T06:01:35;7.68;;;3.70;;
69321;SDS011;67799;51.974;4.612;2023-02-18T06:04:01;9.07;;;4.33;;
69321;SDS011;67799;51.974;4.612;2023-02-18T06:06:27;12.55;;;4.93;;
69321;SDS011;67799;51.974;4.612;2023-02-18T06:08:53;9.05;;;4.07;;
69321;SDS011;67799;51.974;4.612;2023-02-18T06:11:19;4.87;;;3.37;;
69321;SDS011;67799;51.974;4.612;2023-02-18T06:13:45;5.95;;;3.83;;
69321;SDS011;67799;51.974;4.612;2023-02-18T06:16:11;14.40;;;4.93;;
69321;SDS011;67799;51.974;4.612;2023-02-18T06:18:37;8.50;;;3.60;;
69321;SDS011;67799;51.974;4.612;2023-02-18T06:21:03;6.05;;;3.78;;
69321;SDS011;67799;51.974;4.612;2023-02-18T06:23:29;14.95;;;3.35;;
69321;SDS011;67799;51.974;4.612;2023-02-18T06:25:55;6.33;;;3.40;;
69321;SDS011;67799;51.974;4.612;2023-02-18T06:28:21;4.85;;;2.95;;
69321;SDS011;67799;51.974;4.612;2023-02-18T06:30:47;7.68;;;3.78;;
69321;SDS011;67799;51.974;4.612;2023-02-18T06:33:14;9.97;;;2.77;;
69321;SDS011;67799;51.974;4.612;2023-02-18T06:35:40;7.70;;;3.30;;
69321;SDS011;67799;51.974;4.612;2023-02-18T06:38:06;7.35;;;2.58;;
69321;SDS011;67799;51.974;4.612;2023-02-18T06:40:32;15.30;;;4.07;;
69321;SDS011;67799;51.974;4.612;2023-02-18T06:42:58;8.03;;;2.90;;
69321;SDS011;67799;51.974;4.612;2023-02-18T06:45:24;5.90;;;3.00;;
69321;SDS011;67799;51.974;4.612;2023-02-18T06:47:50;7.57;;;3.27;;
69321;SDS011;67799;51.974;4.612;2023-02-18T06:50:16;5.17;;;2.67;;
69321;SDS011;67799;51.974;4.612;2023-02-18T06:52:43;12.07;;;3.25;;
69321;SDS011;67799;51.974;4.612;2023-02-18T06:55:09;7.88;;;2.90;;
69321;SDS011;67799;51.974;4.612;2023-02-18T06:57:35;5.60;;;2.40;;
69321;SDS011;67799;51.974;4.612;2023-02-18T07:00:02;6.07;;;2.78;;
69321;SDS011;67799;51.974;4.612;2023-02-18T07:02:29;8.85;;;3.40;;
69321;SDS011;67799;51.974;4.612;2023-02-18T07:04:55;5.20;;;2.13;;
69321;SDS011;67799;51.974;4.612;2023-02-18T07:07:21;12.52;;;2.63;;
69321;SDS011;67799;51.974;4.612;2023-02-18T07:09:47;10.23;;;2.73;;
69321;SDS011;67799;51.974;4.612;2023-02-18T07:12:13;3.80;;;2.10;;
69321;SDS011;67799;51.974;4.612;2023-02-18T07:14:39;8.32;;;2.97;;
69321;SDS011;67799;51.974;4.612;2023-02-18T07:17:04;8.10;;;2.60;;
69321;SDS011;67799;51.974;4.612;2023-02-18T07:19:30;9.63;;;2.20;;
69321;SDS011;67799;51.974;4.612;2023-02-18T07:21:56;8.60;;;2.17;;
69321;SDS011;67799;51.974;4.612;2023-02-18T07:24:22;5.13;;;2.60;;
69321;SDS011;67799;51.974;4.612;2023-02-18T07:26:48;3.92;;;2.10;;
69321;SDS011;67799;51.974;4.612;2023-02-18T07:29:14;5.85;;;2.33;;
69321;SDS011;67799;51.974;4.612;2023-02-18T07:31:40;4.00;;;2.03;;
69321;SDS011;67799;51.974;4.612;2023-02-18T07:34:06;3.10;;;1.98;;
69321;SDS011;67799;51.974;4.612;2023-02-18T07:36:31;7.55;;;2.30;;
69321;SDS011;67799;51.974;4.612;2023-02-18T07:38:57;7.33;;;2.00;;
69321;SDS011;67799;51.974;4.612;2023-02-18T07:41:24;6.63;;;2.10;;
69321;SDS011;67799;51.974;4.612;2023-02-18T07:43:50;3.43;;;1.97;;
69321;SDS011;67799;51.974;4.612;2023-02-18T07:46:15;5.63;;;2.22;;
69321;SDS011;67799;51.974;4.612;2023-02-18T07:48:42;2.78;;;2.55;;
69321;SDS011;67799;51.974;4.612;2023-02-18T07:51:08;5.57;;;2.22;;
69321;SDS011;67799;51.974;4.612;2023-02-18T07:53:35;4.00;;;2.37;;
69321;SDS011;67799;51.974;4.612;2023-02-18T07:56:02;7.03;;;1.98;;
69321;SDS011;67799;51.974;4.612;2023-02-18T07:58:30;11.63;;;2.40;;
69321;SDS011;67799;51.974;4.612;2023-02-18T08:00:57;2.93;;;1.83;;
69321;SDS011;67799;51.974;4.612;2023-02-18T08:03:25;5.40;;;1.85;;
69321;SDS011;67799;51.974;4.612;2023-02-18T08:05:53;6.72;;;1.90;;
69321;SDS011;67799;51.974;4.612;2023-02-18T08:08:20;9.67;;;1.90;;
69321;SDS011;67799;51.974;4.612;2023-02-18T08:10:49;7.72;;;2.28;;
69321;SDS011;67799;51.974;4.612;2023-02-18T08:13:16;6.00;;;2.65;;
69321;SDS011;67799;51.974;4.612;2023-02-18T08:15:42;4.22;;;2.05;;
69321;SDS011;67799;51.974;4.612;2023-02-18T08:18:13;4.47;;;2.63;;
69321;SDS011;67799;51.974;4.612;2023-02-18T08:20:41;8.90;;;2.60;;
69321;SDS011;67799;51.974;4.612;2023-02-18T08:23:06;7.75;;;2.47;;
69321;SDS011;67799;51.974;4.612;2023-02-18T08:25:34;8.50;;;2.50;;
69321;SDS011;67799;51.974;4.612;2023-02-18T08:28:00;4.13;;;2.28;;
69321;SDS011;67799;51.974;4.612;2023-02-18T08:30:26;4.28;;;1.83;;
69321;SDS011;67799;51.974;4.612;2023-02-18T08:32:52;2.13;;;1.67;;
69321;SDS011;67799;51.974;4.612;2023-02-18T08:35:18;3.63;;;1.55;;
69321;SDS011;67799;51.974;4.612;2023-02-18T08:37:44;6.45;;;2.00;;
69321;SDS011;67799;51.974;4.612;2023-02-18T08:40:10;8.23;;;2.03;;
69321;SDS011;67799;51.974;4.612;2023-02-18T08:42:36;4.43;;;2.10;;
69321;SDS011;67799;51.974;4.612;2023-02-18T08:45:03;4.13;;;1.90;;
69321;SDS011;67799;51.974;4.612;2023-02-18T08:47:29;6.60;;;2.03;;
69321;SDS011;67799;51.974;4.612;2023-02-18T08:49:55;8.10;;;1.90;;
69321;SDS011;67799;51.974;4.612;2023-02-18T08:52:21;4.13;;;1.60;;
69321;SDS011;67799;51.974;4.612;2023-02-18T08:54:47;2.97;;;1.85;;
69321;SDS011;67799;51.974;4.612;2023-02-18T08:57:13;5.07;;;1.97;;
69321;SDS011;67799;51.974;4.612;2023-02-18T08:59:39;2.30;;;1.92;;
69321;SDS011;67799;51.974;4.612;2023-02-18T09:02:05;3.25;;;1.85;;
69321;SDS011;67799;51.974;4.612;2023-02-18T09:04:31;8.27;;;1.60;;
69321;SDS011;67799;51.974;4.612;2023-02-18T09:06:57;6.85;;;1.77;;
69321;SDS011;67799;51.974;4.612;2023-02-18T09:09:23;7.82;;;1.65;;
69321;SDS011;67799;51.974;4.612;2023-02-18T09:11:49;6.00;;;2.00;;
69321;SDS011;67799;51.974;4.612;2023-02-18T09:14:15;4.28;;;1.73;;
69321;SDS011;67799;51.974;4.612;2023-02-18T09:16:41;8.38;;;1.88;;
69321;SDS011;67799;51.974;4.612;2023-02-18T09:19:07;7.87;;;2.10;;
69321;SDS011;67799;51.974;4.612;2023-02-18T09:21:33;7.20;;;1.80;;
69321;SDS011;67799;51.974;4.612;2023-02-18T09:23:59;5.88;;;2.20;;
69321;SDS011;67799;51.974;4.612;2023-02-18T09:26:26;8.80;;;2.08;;
69321;SDS011;67799;51.974;4.612;2023-02-18T09:28:52;7.70;;;2.10;;
69321;SDS011;67799;51.974;4.612;2023-02-18T09:31:21;3.33;;;1.90;;
69321;SDS011;67799;51.974;4.612;2023-02-18T09:33:49;3.97;;;2.28;;
69321;SDS011;67799;51.974;4.612;2023-02-18T09:36:17;8.50;;;2.50;;
69321;SDS011;67799;51.974;4.612;2023-02-18T09:38:44;6.35;;;1.98;;
69321;SDS011;67799;51.974;4.612;2023-02-18T09:46:47;7.03;;;2.30;;
69321;SDS011;67799;51.974;4.612;2023-02-18T09:49:30;3.17;;;2.00;;
69321;SDS011;67799;51.974;4.612;2023-02-18T09:52:09;6.75;;;1.88;;
69321;SDS011;67799;51.974;4.612;2023-02-18T09:54:44;6.03;;;1.87;;
69321;SDS011;67799;51.974;4.612;2023-02-18T09:57:39;5.93;;;2.60;;
69321;SDS011;67799;51.974;4.612;2023-02-18T10:00:22;4.70;;;1.73;;
69321;SDS011;67799;51.974;4.612;2023-02-18T10:03:07;7.47;;;2.30;;
69321;SDS011;67799;51.974;4.612;2023-02-18T10:05:42;7.93;;;1.98;;
69321;SDS011;67799;51.974;4.612;2023-02-18T10:08:18;5.28;;;2.08;;
69321;SDS011;67799;51.974;4.612;2023-02-18T10:10:50;3.00;;;1.83;;
69321;SDS011;67799;51.974;4.612;2023-02-18T10:13:17;8.65;;;2.13;;
69321;SDS011;67799;51.974;4.612;2023-02-18T10:15:46;9.85;;;2.72;;
69321;SDS011;67799;51.974;4.612;2023-02-18T10:18:21;7.30;;;2.43;;
69321;SDS011;67799;51.974;4.612;2023-02-18T10:20:57;4.28;;;1.83;;
69321;SDS011;67799;51.974;4.612;2023-02-18T10:26:52;4.10;;;2.00;;
69321;SDS011;67799;51.974;4.612;2023-02-18T10:29:19;2.20;;;2.00;;
69321;SDS011;67799;51.974;4.612;2023-02-18T10:32:06;4.00;;;1.80;;
69321;SDS011;67799;51.974;4.612;2023-02-18T10:34:46;2.75;;;1.90;;
69321;SDS011;67799;51.974;4.612;2023-02-18T10:40:07;2.10;;;1.70;;
69321;SDS011;67799;51.974;4.612;2023-02-18T10:45:35;7.77;;;2.20;;
69321;SDS011;67799;51.974;4.612;2023-02-18T10:48:20;6.05;;;1.90;;
69321;SDS011;67799;51.974;4.612;2023-02-18T10:50:57;5.45;;;2.47;;
69321;SDS011;67799;51.974;4.612;2023-02-18T10:53:33;3.33;;;1.98;;
69321;SDS011;67799;51.974;4.612;2023-02-18T10:56:03;3.20;;;2.10;;
69321;SDS011;67799;51.974;4.612;2023-02-18T11:01:03;1.77;;;1.67;;
69321;SDS011;67799;51.974;4.612;2023-02-18T11:04:07;5.53;;;2.03;;
69321;SDS011;67799;51.974;4.612;2023-02-18T11:06:50;2.65;;;1.80;;
69321;SDS011;67799;51.974;4.612;2023-02-18T11:09:39;4.00;;;1.83;;
69321;SDS011;67799;51.974;4.612;2023-02-18T11:12:14;3.03;;;2.10;;
69321;SDS011;67799;51.974;4.612;2023-02-18T11:14:45;7.63;;;1.75;;
69321;SDS011;67799;51.974;4.612;2023-02-18T11:19:51;11.65;;;2.35;;
69321;SDS011;67799;51.974;4.612;2023-02-18T11:22:33;2.87;;;1.87;;
69321;SDS011;67799;51.974;4.612;2023-02-18T11:25:17;5.05;;;1.80;;
69321;SDS011;67799;51.974;4.612;2023-02-18T11:27:48;4.38;;;1.83;;
69321;SDS011;67799;51.974;4.612;2023-02-18T11:32:51;3.33;;;1.70;;
69321;SDS011;67799;51.974;4.612;2023-02-18T11:35:24;2.08;;;1.70;;
69321;SDS011;67799;51.974;4.612;2023-02-18T11:37:53;4.37;;;2.03;;
69321;SDS011;67799;51.974;4.612;2023-02-18T11:42:50;5.50;;;1.83;;
69321;SDS011;67799;51.974;4.612;2023-02-18T11:45:27;2.85;;;2.00;;
69321;SDS011;67799;51.974;4.612;2023-02-18T11:47:58;2.37;;;1.73;;
69321;SDS011;67799;51.974;4.612;2023-02-18T11:50:44;8.75;;;2.25;;
69321;SDS011;67799;51.974;4.612;2023-02-18T11:56:00;3.07;;;1.80;;
69321;SDS011;67799;51.974;4.612;2023-02-18T11:58:31;2.47;;;1.70;;
69321;SDS011;67799;51.974;4.612;2023-02-18T12:01:02;4.32;;;2.20;;
69321;SDS011;67799;51.974;4.612;2023-02-18T12:06:17;5.28;;;1.90;;
69321;SDS011;67799;51.974;4.612;2023-02-18T12:08:48;3.10;;;1.65;;
69321;SDS011;67799;51.974;4.612;2023-02-18T12:11:23;3.65;;;1.63;;
69321;SDS011;67799;51.974;4.612;2023-02-18T12:13:55;2.07;;;1.77;;
69321;SDS011;67799;51.974;4.612;2023-02-18T12:19:08;4.10;;;2.03;;
69321;SDS011;67799;51.974;4.612;2023-02-18T12:21:47;1.67;;;1.50;;
69321;SDS011;67799;51.974;4.612;2023-02-18T12:24:34;3.03;;;1.67;;
69321;SDS011;67799;51.974;4.612;2023-02-18T12:27:29;2.45;;;1.73;;
69321;SDS011;67799;51.974;4.612;2023-02-18T13:03:58;4.80;;;1.77;;
69321;SDS011;67799;51.974;4.612;2023-02-18T13:09:37;3.45;;;1.60;;
69321;SDS011;67799;51.974;4.612;2023-02-18T13:12:09;2.28;;;1.70;;
69321;SDS011;67799;51.974;4.612;2023-02-18T13:14:42;6.15;;;1.90;;
69321;SDS011;67799;51.974;4.612;2023-02-18T13:17:14;8.53;;;1.93;;
69321;SDS011;67799;51.974;4.612;2023-02-18T13:19:46;5.30;;;2.10;;
69321;SDS011;67799;51.974;4.612;2023-02-18T13:22:17;4.80;;;1.50;;
69321;SDS011;67799;51.974;4.612;2023-02-18T13:24:47;2.43;;;2.00;;
69321;SDS011;67799;51.974;4.612;2023-02-18T13:27:17;3.80;;;1.80;;
69321;SDS011;67799;51.974;4.612;2023-02-18T13:35:45;2.67;;;1.60;;
69321;SDS011;67799;51.974;4.612;2023-02-18T13:41:03;4.30;;;1.88;;
69321;SDS011;67799;51.974;4.612;2023-02-18T13:43:31;2.30;;;2.00;;
69321;SDS011;67799;51.974;4.612;2023-02-18T13:46:08;3.83;;;2.10;;
69321;SDS011;67799;51.974;4.612;2023-02-18T13:51:41;1.50;;;1.40;;
69321;SDS011;67799;51.974;4.612;2023-02-18T13:56:39;3.90;;;1.60;;
69321;SDS011;67799;51.974;4.612;2023-02-18T14:10:23;2.00;;;1.80;;
69321;SDS011;67799;51.974;4.612;2023-02-18T14:20:31;5.15;;;2.05;;
69321;SDS011;67799;51.974;4.612;2023-02-18T14:22:57;3.55;;;1.67;;
69321;SDS011;67799;51.974;4.612;2023-02-18T14:25:41;4.50;;;1.80;;
69321;SDS011;67799;51.974;4.612;2023-02-18T14:36:37;2.13;;;1.73;;
69321;SDS011;67799;51.974;4.612;2023-02-18T14:49:57;1.90;;;1.75;;
69321;SDS011;67799;51.974;4.612;2023-02-18T14:52:29;2.23;;;1.77;;
69321;SDS011;67799;51.974;4.612;2023-02-18T14:54:55;1.90;;;1.63;;
69321;SDS011;67799;51.974;4.612;2023-02-18T14:57:44;4.10;;;1.77;;
69321;SDS011;67799;51.974;4.612;2023-02-18T15:00:17;3.40;;;1.80;;
69321;SDS011;67799;51.974;4.612;2023-02-18T15:02:50;2.65;;;1.80;;
69321;SDS011;67799;51.974;4.612;2023-02-18T15:05:22;1.90;;;1.75;;
69321;SDS011;67799;51.974;4.612;2023-02-18T15:07:56;3.93;;;1.73;;
69321;SDS011;67799;51.974;4.612;2023-02-18T15:16:00;1.75;;;1.65;;
69321;SDS011;67799;51.974;4.612;2023-02-18T15:21:06;2.20;;;2.00;;
69321;SDS011;67799;51.974;4.612;2023-02-18T15:23:44;2.17;;;1.60;;
69321;SDS011;67799;51.974;4.612;2023-02-18T15:26:14;2.73;;;2.37;;
69321;SDS011;67799;51.974;4.612;2023-02-18T15:28:41;1.75;;;1.63;;
69321;SDS011;67799;51.974;4.612;2023-02-18T15:31:18;1.60;;;1.50;;
69321;SDS011;67799;51.974;4.612;2023-02-18T15:33:49;7.60;;;2.20;;
69321;SDS011;67799;51.974;4.612;2023-02-18T15:36:14;2.47;;;2.03;;
69321;SDS011;67799;51.974;4.612;2023-02-18T15:38:40;2.28;;;1.98;;
69321;SDS011;67799;51.974;4.612;2023-02-18T15:41:09;2.90;;;1.77;;
69321;SDS011;67799;51.974;4.612;2023-02-18T15:43:37;2.05;;;1.67;;
69321;SDS011;67799;51.974;4.612;2023-02-18T15:46:05;3.28;;;1.80;;
69321;SDS011;67799;51.974;4.612;2023-02-18T15:48:44;7.07;;;2.20;;
69321;SDS011;67799;51.974;4.612;2023-02-18T15:51:13;3.00;;;1.97;;
69321;SDS011;67799;51.974;4.612;2023-02-18T15:53:46;5.57;;;2.20;;
69321;SDS011;67799;51.974;4.612;2023-02-18T15:56:20;3.30;;;2.03;;
69321;SDS011;67799;51.974;4.612;2023-02-18T16:01:54;4.60;;;1.98;;
69321;SDS011;67799;51.974;4.612;2023-02-18T16:04:33;2.40;;;2.10;;
69321;SDS011;67799;51.974;4.612;2023-02-18T16:08:12;3.07;;;1.83;;
69321;SDS011;67799;51.974;4.612;2023-02-18T16:10:16;3.05;;;2.10;;
69321;SDS011;67799;51.974;4.612;2023-02-18T16:12:56;1.95;;;1.73;;
69321;SDS011;67799;51.974;4.612;2023-02-18T16:15:26;2.58;;;1.90;;
69321;SDS011;67799;51.974;4.612;2023-02-18T16:17:54;3.80;;;1.73;;
69321;SDS011;67799;51.974;4.612;2023-02-18T16:20:30;4.30;;;1.95;;
69321;SDS011;67799;51.974;4.612;2023-02-18T16:23:09;4.20;;;2.05;;
69321;SDS011;67799;51.974;4.612;2023-02-18T16:25:44;9.93;;;3.30;;
69321;SDS011;67799;51.974;4.612;2023-02-18T16:28:13;3.00;;;1.90;;
69321;SDS011;67799;51.974;4.612;2023-02-18T16:30:52;6.03;;;2.20;;
69321;SDS011;67799;51.974;4.612;2023-02-18T16:33:19;2.83;;;2.33;;
69321;SDS011;67799;51.974;4.612;2023-02-18T16:35:45;3.38;;;2.05;;
69321;SDS011;67799;51.974;4.612;2023-02-18T16:38:14;5.53;;;2.20;;
69321;SDS011;67799;51.974;4.612;2023-02-18T16:40:42;9.60;;;2.55;;
69321;SDS011;67799;51.974;4.612;2023-02-18T16:43:12;2.80;;;1.90;;
69321;SDS011;67799;51.974;4.612;2023-02-18T16:45:40;3.78;;;2.05;;
69321;SDS011;67799;51.974;4.612;2023-02-18T16:48:19;6.60;;;2.55;;
69321;SDS011;67799;51.974;4.612;2023-02-18T16:50:48;7.90;;;2.30;;
69321;SDS011;67799;51.974;4.612;2023-02-18T16:53:17;4.40;;;2.22;;
69321;SDS011;67799;51.974;4.612;2023-02-18T16:55:44;7.70;;;2.28;;
69321;SDS011;67799;51.974;4.612;2023-02-18T16:58:10;8.70;;;2.37;;
69321;SDS011;67799;51.974;4.612;2023-02-18T17:00:36;6.57;;;2.13;;
69321;SDS011;67799;51.974;4.612;2023-02-18T17:03:02;3.95;;;1.92;;
69321;SDS011;67799;51.974;4.612;2023-02-18T17:05:31;11.68;;;2.38;;
69321;SDS011;67799;51.974;4.612;2023-02-18T17:08:23;2.83;;;2.10;;
69321;SDS011;67799;51.974;4.612;2023-02-18T17:10:54;4.85;;;2.33;;
69321;SDS011;67799;51.974;4.612;2023-02-18T17:13:23;3.55;;;1.85;;
69321;SDS011;67799;51.974;4.612;2023-02-18T17:15:50;5.83;;;2.37;;
69321;SDS011;67799;51.974;4.612;2023-02-18T17:18:19;2.85;;;2.15;;
69321;SDS011;67799;51.974;4.612;2023-02-18T17:20:46;5.85;;;2.35;;
69321;SDS011;67799;51.974;4.612;2023-02-18T17:23:18;6.67;;;2.50;;
69321;SDS011;67799;51.974;4.612;2023-02-18T17:25:47;5.10;;;2.22;;
69321;SDS011;67799;51.974;4.612;2023-02-18T17:28:14;5.13;;;2.20;;
69321;SDS011;67799;51.974;4.612;2023-02-18T17:30:44;17.98;;;2.88;;
69321;SDS011;67799;51.974;4.612;2023-02-18T17:33:13;6.57;;;2.23;;
69321;SDS011;67799;51.974;4.612;2023-02-18T17:35:41;7.75;;;2.03;;
69321;SDS011;67799;51.974;4.612;2023-02-18T17:38:10;2.70;;;2.08;;
69321;SDS011;67799;51.974;4.612;2023-02-18T17:40:37;6.27;;;2.20;;
69321;SDS011;67799;51.974;4.612;2023-02-18T17:43:03;6.50;;;2.53;;
69321;SDS011;67799;51.974;4.612;2023-02-18T17:45:34;6.30;;;2.08;;
69321;SDS011;67799;51.974;4.612;2023-02-18T17:48:01;5.67;;;2.20;;
69321;SDS011;67799;51.974;4.612;2023-02-18T17:50:28;5.68;;;2.10;;
69321;SDS011;67799;51.974;4.612;2023-02-18T17:52:55;2.40;;;2.15;;
69321;SDS011;67799;51.974;4.612;2023-02-18T17:55:22;8.68;;;2.80;;